Flight Information

DEPARTURE
EUGENE, OR
Elevation:
373
Runways:
16R/34L - 8009x150 - ASPH-G
16L/34R - 6000x150 - ASPH-G
Active PE Departure:
16L - 16R
Current PE ATIS:
Y
Altimeter:
30.21
Remarks:
SIMULTANEOUS APPROACHES TO PARALLEL RUNWAYS IN USE.
ATIS:
125.225 541-607-4699
Clearance Delivery:
121.7
Ground:
121.7
Tower:
EUGENE TOWER 118.9 RY 16R/34L 124.15 RY 16L/34R
DESTINATION
,
Elevation:
TPA:
1000 (est.)


6788.9 NM66° True-18° Var47° HDG

Flight Plan:
(click to file on line)

1. Type
2. Aircraft Identification
3. Aircraft Type / Special Equipment
4. True Airspeed
kts
5. Departure Airport
(ICAO code)
6. Arriving Airport
(ICAO code)
7. Cruising Altitude
ft
8. Alternate Airport
(ICAO code)
9. Route of Flight
10. Remarks


00:00:00 Departure ATIS: Destination ATIS:

Clearance Limit:
Route:
Altitude: Expect in minutes
Frequency:
Transponder: (7500 Hijack / 7600 Lost Comms / 7700 Emergency)


KEUG 051454Z 00000KT 10SM FEW025 BKN045 15/10 A3021 RMK AO2 SLP227 T01500100 50003
Time: 2020-07-05T14:54:00Z
1593963149
Winds: calm
Visibility: 10.0 sm
Clouds (AGL): FEW 2500
BKN 4500
Temperature: 15.0 C
Dew Point: 10.0 C
Pressure: 30.209646 in Hgbr


Notes:

Data extracted from FAA Digital Chart Supplement. Effective: 0901Z Thursday, May 21, 2020 to 0901Z Thursday, Jul 16, 2020
Current ATIS data is provided courtisy of PilotEdge.